Alpental, Washington
Current Conditions -  °F | °C
As of 8:53 PM on Thursday 30 Oct 2014 (Local Time) from KRNT Reporting Station
Light Rain Light Rain  
Wind Chill: 57°   Ceiling: 2900
Heat Index: 57°   Visibility: 8mi
Dew Point: 56°   Wind: 6mph
Humidity: 96%   Direction: 180°S
Pressure: 29.78"   Gusts: NA
Location:  47.4076°N, 121.414°W
Report Text: KRNT 310353Z AUTO 18005KT 8SM -RA FEW010 BKN029 OVC080 14/13 A2978 RMK AO2 SLP088 P0006 T01390133
Loading
Personal Weather Stations






























Interactive Weather Map
Tropical Storm Tracking
New forecast layout! Learn more

10-Day Weather Forecast

Advertisements
Track Severe Weather on mobile